createdAt,value
2023-03-23T00:01:44.252Z,10.4
2023-03-23T00:04:10.950Z,10.5
2023-03-23T00:06:37.687Z,10.5
2023-03-23T00:09:04.276Z,10.5
2023-03-23T00:11:30.967Z,10.5
2023-03-23T00:13:57.742Z,10.4
2023-03-23T00:16:24.408Z,10.5
2023-03-23T00:18:51.146Z,10.5
2023-03-23T00:21:17.710Z,10.5
2023-03-23T00:23:44.506Z,10.5
2023-03-23T00:26:09.647Z,10.5
2023-03-23T00:28:36.288Z,10.5
2023-03-23T00:31:02.989Z,10.5
2023-03-23T00:33:29.701Z,10.6
2023-03-23T00:35:56.337Z,10.6
2023-03-23T00:38:23.138Z,10.6
2023-03-23T00:40:49.826Z,10.6
2023-03-23T00:43:16.527Z,10.6
2023-03-23T00:45:43.101Z,10.6
2023-03-23T00:48:09.894Z,10.6
2023-03-23T00:50:36.521Z,10.6
2023-03-23T00:53:03.144Z,10.6
2023-03-23T00:55:29.829Z,10.7
2023-03-23T00:57:55.072Z,10.7
2023-03-23T01:00:21.742Z,10.7
2023-03-23T01:02:48.601Z,10.7
2023-03-23T01:05:15.102Z,10.8
2023-03-23T01:07:41.962Z,10.7
2023-03-23T01:10:08.595Z,10.7
2023-03-23T01:12:35.308Z,10.7
2023-03-23T01:15:01.840Z,10.7
2023-03-23T01:17:28.635Z,10.7
2023-03-23T01:19:55.287Z,10.8
2023-03-23T01:22:21.892Z,10.8
2023-03-23T01:24:48.720Z,10.8
2023-03-23T01:27:15.281Z,10.9
2023-03-23T01:29:40.631Z,11
2023-03-23T01:32:07.157Z,11
2023-03-23T01:34:33.912Z,11
2023-03-23T01:37:00.654Z,11
2023-03-23T01:39:27.316Z,11.1
2023-03-23T01:41:53.913Z,11.1
2023-03-23T01:44:20.709Z,11.1
2023-03-23T01:46:47.459Z,11
2023-03-23T01:49:14.065Z,11
2023-03-23T01:51:40.782Z,11
2023-03-23T01:54:07.433Z,11
2023-03-23T01:56:34.103Z,10.9
2023-03-23T01:59:00.714Z,10.9
2023-03-23T02:01:26.174Z,10.9
2023-03-23T02:03:52.633Z,10.9
2023-03-23T02:06:19.375Z,10.9
2023-03-23T02:08:45.994Z,10.9
2023-03-23T02:11:12.748Z,10.9
2023-03-23T02:13:39.445Z,10.9
2023-03-23T02:16:06.197Z,10.9
2023-03-23T02:18:32.806Z,11
2023-03-23T02:20:59.407Z,10.9
2023-03-23T02:23:26.098Z,10.9
2023-03-23T02:25:52.788Z,10.9
2023-03-23T02:28:19.562Z,10.9
2023-03-23T02:30:46.281Z,11
2023-03-23T02:33:11.560Z,11.1
2023-03-23T02:38:04.847Z,11.1
2023-03-23T02:40:31.432Z,11
2023-03-23T02:42:58.125Z,11.1
2023-03-23T02:45:24.921Z,11
2023-03-23T02:47:51.565Z,11
2023-03-23T02:50:18.171Z,11
2023-03-23T02:52:44.981Z,11
2023-03-23T02:55:11.592Z,11
2023-03-23T02:57:38.333Z,11
2023-03-23T03:00:04.916Z,11
2023-03-23T03:02:31.655Z,11
2023-03-23T03:04:58.391Z,11
2023-03-23T03:07:23.593Z,11.1
2023-03-23T03:09:50.341Z,11.1
2023-03-23T03:12:17.028Z,11.1
2023-03-23T03:14:43.688Z,11.1
2023-03-23T03:17:10.362Z,11.2
2023-03-23T03:19:36.960Z,11.1
2023-03-23T03:22:03.672Z,11.1
2023-03-23T03:24:30.352Z,11.1
2023-03-23T03:26:56.977Z,11.1
2023-03-23T03:29:23.765Z,11.1
2023-03-23T03:31:50.496Z,11.1
2023-03-23T03:34:17.120Z,11.1
2023-03-23T03:36:43.850Z,11
2023-03-23T03:39:08.928Z,11
2023-03-23T03:41:35.659Z,11
2023-03-23T03:44:02.309Z,11.1
2023-03-23T03:46:29.151Z,11.1
2023-03-23T03:48:55.747Z,11.1
2023-03-23T03:51:22.452Z,11.1
2023-03-23T03:53:49.210Z,11.1
2023-03-23T03:56:15.803Z,11.2
2023-03-23T03:58:42.515Z,11.2
2023-03-23T04:01:09.101Z,11.2
2023-03-23T04:03:35.909Z,11.3
2023-03-23T04:06:02.679Z,11.2
2023-03-23T04:08:29.167Z,11.2
2023-03-23T04:10:54.469Z,11.2
2023-03-23T04:13:21.073Z,11.1
2023-03-23T04:15:47.945Z,11.1
2023-03-23T04:18:14.448Z,11.1
2023-03-23T04:20:41.199Z,11
2023-03-23T04:23:06.404Z,11
2023-03-23T04:25:33.200Z,11
2023-03-23T04:27:59.814Z,11
2023-03-23T04:30:26.441Z,11
2023-03-23T04:32:53.139Z,11
2023-03-23T04:35:19.797Z,11
2023-03-23T04:37:46.509Z,11.1
2023-03-23T04:40:13.159Z,11.1
2023-03-23T04:42:39.895Z,11.1
2023-03-23T04:45:06.658Z,11.1
2023-03-23T04:47:33.338Z,11.2
2023-03-23T04:50:00.064Z,11.2
2023-03-23T04:52:26.678Z,11.2
2023-03-23T04:54:51.999Z,11.2
2023-03-23T04:57:18.565Z,11.2
2023-03-23T04:59:45.352Z,11.2
2023-03-23T05:02:12.045Z,11.2
2023-03-23T05:04:38.566Z,11.2
2023-03-23T05:07:05.250Z,11.4
2023-03-23T05:09:31.924Z,11.4
2023-03-23T05:11:58.672Z,11.4
2023-03-23T05:14:25.305Z,11.3
2023-03-23T05:16:51.986Z,11.2
2023-03-23T05:19:18.675Z,11.2
2023-03-23T05:21:45.483Z,11.2
2023-03-23T05:24:12.296Z,11.2
2023-03-23T05:26:37.415Z,11.2
2023-03-23T05:29:04.133Z,11.3
2023-03-23T05:31:30.693Z,11.3
2023-03-23T05:33:57.397Z,11.3
2023-03-23T05:36:24.026Z,11.3
2023-03-23T05:38:50.856Z,11.3
2023-03-23T05:41:17.369Z,11.3
2023-03-23T05:43:44.215Z,11.3
2023-03-23T05:46:10.830Z,11.3
2023-03-23T05:48:37.595Z,11.4
2023-03-23T05:51:04.180Z,11.4
2023-03-23T05:53:30.936Z,11.4
2023-03-23T05:55:57.599Z,11.4
2023-03-23T05:58:22.750Z,11.4
2023-03-23T06:00:49.475Z,11.4
2023-03-23T06:03:16.221Z,11.4
2023-03-23T06:05:42.935Z,11.4
2023-03-23T06:08:09.551Z,11.5
2023-03-23T06:10:36.211Z,11.5
2023-03-23T06:13:02.884Z,11.5
2023-03-23T06:15:29.681Z,11.6
2023-03-23T06:17:56.362Z,11.7
2023-03-23T06:20:23.005Z,11.7
2023-03-23T06:22:49.708Z,11.7
2023-03-23T06:25:16.407Z,11.8
2023-03-23T06:27:43.090Z,11.9
2023-03-23T06:30:08.296Z,11.9
2023-03-23T06:32:34.816Z,12
2023-03-23T06:35:01.595Z,12
2023-03-23T06:37:28.416Z,12.1
2023-03-23T06:39:54.881Z,12.2
2023-03-23T06:42:21.568Z,12.2
2023-03-23T06:44:48.489Z,12.2
2023-03-23T06:47:14.960Z,12.2
2023-03-23T06:49:41.752Z,12.2
2023-03-23T06:52:08.480Z,12.3
2023-03-23T06:54:35.151Z,12.3
2023-03-23T06:57:01.869Z,12.3
2023-03-23T06:59:28.537Z,12.2
2023-03-23T07:01:53.721Z,12.3
2023-03-23T07:04:20.426Z,12.3
2023-03-23T07:06:47.154Z,12.4
2023-03-23T07:09:13.834Z,12.5
2023-03-23T07:11:40.322Z,12.5
2023-03-23T07:14:07.084Z,12.7
2023-03-23T07:16:33.690Z,12.7
2023-03-23T07:19:00.369Z,12.9
2023-03-23T07:21:27.071Z,13.1
2023-03-23T07:23:53.948Z,13.2
2023-03-23T07:26:20.610Z,13.3
2023-03-23T07:28:47.303Z,13.4
2023-03-23T07:31:13.863Z,13.4
2023-03-23T07:33:40.503Z,13.4
2023-03-23T07:36:05.886Z,13.4
2023-03-23T07:38:32.387Z,13.4
2023-03-23T07:40:59.304Z,13.4
2023-03-23T07:43:25.934Z,13.3
2023-03-23T07:45:52.644Z,13.3
2023-03-23T07:48:19.135Z,13.3
2023-03-23T07:50:45.930Z,13.2
2023-03-23T07:53:12.496Z,13.2
2023-03-23T07:55:39.195Z,13.3
2023-03-23T07:58:05.876Z,13.3
2023-03-23T08:00:32.557Z,13.3
2023-03-23T08:02:59.349Z,13.4
2023-03-23T08:05:25.971Z,13.5
2023-03-23T08:07:51.263Z,13.7
2023-03-23T08:10:18.024Z,14
2023-03-23T08:12:44.512Z,14.2
2023-03-23T08:15:11.202Z,14.5
2023-03-23T08:17:37.903Z,14.9
2023-03-23T08:20:04.639Z,15.2
2023-03-23T08:22:31.263Z,15.5
2023-03-23T08:24:57.946Z,15.8
2023-03-23T08:27:24.772Z,16.1
2023-03-23T08:29:51.478Z,16.4
2023-03-23T08:32:18.037Z,17
2023-03-23T08:34:44.686Z,17.6
2023-03-23T08:37:11.504Z,18
2023-03-23T08:39:36.585Z,18.4
2023-03-23T08:42:03.288Z,18.6
2023-03-23T08:44:29.937Z,18.8
2023-03-23T08:46:56.726Z,18.8
2023-03-23T08:49:23.301Z,18.8
2023-03-23T08:51:50.101Z,18.7
2023-03-23T08:54:16.860Z,18.8
2023-03-23T08:56:43.476Z,18.9
2023-03-23T08:59:10.099Z,18.7
2023-03-23T09:01:36.772Z,18.6
2023-03-23T09:04:03.575Z,18.4
2023-03-23T09:06:30.246Z,18.4
2023-03-23T09:08:56.878Z,18
2023-03-23T09:11:22.209Z,17.9
2023-03-23T09:13:48.738Z,17.8
2023-03-23T09:16:15.466Z,17.8
2023-03-23T09:18:42.279Z,17.8
2023-03-23T09:21:08.883Z,17.8
2023-03-23T09:23:35.593Z,17.9
2023-03-23T09:26:02.320Z,18
2023-03-23T09:28:28.807Z,18.1
2023-03-23T09:30:55.666Z,18.4
2023-03-23T09:33:22.191Z,18.5
2023-03-23T09:35:49.022Z,18.6
2023-03-23T09:38:15.670Z,18.6
2023-03-23T09:40:42.272Z,18.7
2023-03-23T09:43:07.531Z,18.9
2023-03-23T09:45:34.247Z,19.2
2023-03-23T09:48:00.970Z,19.3
2023-03-23T09:50:27.540Z,19.3
2023-03-23T09:52:54.349Z,19.3
2023-03-23T09:55:20.994Z,19.4
2023-03-23T09:57:47.738Z,19.4
2023-03-23T10:00:14.287Z,19.2
2023-03-23T10:02:41.026Z,19.3
2023-03-23T10:05:07.643Z,19.1
2023-03-23T10:07:34.282Z,18.9
2023-03-23T10:10:01.096Z,18.8
2023-03-23T10:12:27.662Z,18.7
2023-03-23T10:14:53.031Z,18.6
2023-03-23T10:17:19.586Z,18.6
2023-03-23T10:19:46.369Z,18.6
2023-03-23T10:22:13.099Z,18.7
2023-03-23T10:24:39.696Z,18.8
2023-03-23T10:27:06.472Z,18.9
2023-03-23T10:29:32.990Z,19
2023-03-23T10:31:59.766Z,19.1
2023-03-23T10:34:26.593Z,19.2
2023-03-23T10:36:53.045Z,19.2
2023-03-23T10:39:19.821Z,19.3
2023-03-23T10:41:46.556Z,19.2
2023-03-23T10:44:13.106Z,19.2
2023-03-23T10:46:38.332Z,19.1
2023-03-23T10:49:05.078Z,19.1
2023-03-23T10:51:31.684Z,19.2
2023-03-23T10:53:58.438Z,19.2
2023-03-23T10:56:25.061Z,19
2023-03-23T10:58:51.927Z,19.1
2023-03-23T11:01:18.425Z,19.1
2023-03-23T11:03:45.212Z,19
2023-03-23T11:06:11.893Z,19.1
2023-03-23T11:11:05.168Z,19.3
2023-03-23T11:13:31.960Z,19.4
2023-03-23T11:15:58.614Z,19.5
2023-03-23T11:18:23.852Z,19.5
2023-03-23T11:20:50.466Z,19.6
2023-03-23T11:23:17.130Z,19.9
2023-03-23T11:25:43.952Z,20.1
2023-03-23T11:28:10.649Z,20.2
2023-03-23T11:30:37.179Z,20.1
2023-03-23T11:33:03.888Z,20
2023-03-23T11:35:30.602Z,19.8
2023-03-23T11:37:57.356Z,19.9
2023-03-23T11:40:23.929Z,19.8
2023-03-23T11:42:50.668Z,19.6
2023-03-23T11:45:17.309Z,19.5
2023-03-23T11:47:44.096Z,19.2
2023-03-23T11:50:09.198Z,19.2
2023-03-23T11:52:36.026Z,19.3
2023-03-23T11:55:02.565Z,19.3
2023-03-23T11:57:29.254Z,19.4
2023-03-23T11:59:56.176Z,19.6
2023-03-23T12:02:22.823Z,19.8
2023-03-23T12:04:49.321Z,20
2023-03-23T12:07:16.145Z,20.2
2023-03-23T12:09:42.712Z,20.3
2023-03-23T12:12:09.532Z,20.5
2023-03-23T12:14:36.222Z,20.6
2023-03-23T12:17:02.894Z,20.6
2023-03-23T12:19:29.602Z,20.7
2023-03-23T12:21:54.839Z,20.4
2023-03-23T12:24:21.512Z,20.4
2023-03-23T12:26:48.190Z,20.6
2023-03-23T12:29:14.695Z,20.6
2023-03-23T12:31:41.554Z,20.7
2023-03-23T12:34:06.795Z,20.8
2023-03-23T12:36:33.460Z,20.9
2023-03-23T12:39:00.149Z,20.5
2023-03-23T12:41:26.739Z,20.2
2023-03-23T12:43:53.513Z,20
2023-03-23T12:46:20.233Z,19.8
2023-03-23T12:48:46.717Z,19.8
2023-03-23T12:51:13.398Z,19.9
2023-03-23T12:53:40.095Z,19.8
2023-03-23T12:56:06.759Z,20
2023-03-23T12:58:33.451Z,20
2023-03-23T13:01:00.116Z,20
2023-03-23T13:03:26.813Z,20.1
2023-03-23T13:05:52.038Z,20.2
2023-03-23T13:08:18.733Z,20.2
2023-03-23T13:10:45.394Z,20.3
2023-03-23T13:13:12.252Z,20.4
2023-03-23T13:15:38.790Z,20.4
2023-03-23T13:18:05.462Z,20.1
2023-03-23T13:20:32.139Z,20.3
2023-03-23T13:22:58.815Z,20.2
2023-03-23T13:25:25.606Z,20
2023-03-23T13:27:52.298Z,19.8
2023-03-23T13:30:18.877Z,19.5
2023-03-23T13:32:45.712Z,19.7
2023-03-23T13:35:12.262Z,19.9
2023-03-23T13:37:37.514Z,19.8
2023-03-23T13:40:04.231Z,19.5
2023-03-23T13:42:30.951Z,19.5
2023-03-23T13:44:57.650Z,19.6
2023-03-23T13:47:24.213Z,19.8
2023-03-23T13:49:51.069Z,19.8
2023-03-23T13:52:17.716Z,19.4
2023-03-23T13:54:44.431Z,19.3
2023-03-23T13:57:10.994Z,19.3
2023-03-23T13:59:37.640Z,19.3
2023-03-23T14:02:04.425Z,19.5
2023-03-23T14:04:31.215Z,19.5
2023-03-23T14:06:57.845Z,19.4
2023-03-23T14:09:22.994Z,19.4
2023-03-23T14:11:49.775Z,19.5
2023-03-23T14:14:16.368Z,19.4
2023-03-23T14:16:43.047Z,19.3
2023-03-23T14:19:09.785Z,19.3
2023-03-23T14:21:36.338Z,19.3
2023-03-23T14:24:03.122Z,19.1
2023-03-23T14:26:29.744Z,19
2023-03-23T14:28:56.486Z,18.9
2023-03-23T14:31:23.035Z,18.9
2023-03-23T14:33:49.853Z,18.9
2023-03-23T14:36:16.513Z,18.9
2023-03-23T14:38:43.081Z,18.9
2023-03-23T14:41:08.317Z,18.9
2023-03-23T14:43:35.119Z,18.9
2023-03-23T14:46:01.662Z,18.8
2023-03-23T14:48:28.336Z,18.8
2023-03-23T14:50:55.559Z,19.1
2023-03-23T14:53:21.772Z,19.4
2023-03-23T14:55:48.533Z,19.6
2023-03-23T14:58:15.241Z,19.6
2023-03-23T15:00:41.791Z,19.7
2023-03-23T15:03:08.476Z,19.7
2023-03-23T15:05:35.112Z,19.7
2023-03-23T15:08:00.551Z,19.6
2023-03-23T15:10:25.662Z,19.6
2023-03-23T15:12:52.284Z,19.6
2023-03-23T15:15:18.966Z,19.5
2023-03-23T15:17:45.787Z,19.5
2023-03-23T15:20:12.434Z,19.5
2023-03-23T15:22:39.029Z,19.5
2023-03-23T15:25:05.874Z,19.4
2023-03-23T15:27:32.502Z,19.4
2023-03-23T15:29:59.182Z,19.4
2023-03-23T15:32:25.805Z,19.4
2023-03-23T15:34:52.464Z,19.4
2023-03-23T15:37:19.274Z,19.4
2023-03-23T15:39:45.985Z,19.3
2023-03-23T15:42:11.194Z,19.3
2023-03-23T15:44:37.876Z,19.3
2023-03-23T15:49:31.279Z,19.2
2023-03-23T15:51:57.775Z,19.2
2023-03-23T15:54:24.630Z,19.2
2023-03-23T15:56:51.350Z,19.1
2023-03-23T15:59:18.064Z,19.1
2023-03-23T16:04:09.924Z,19
2023-03-23T16:06:35.035Z,19
2023-03-23T16:09:00.286Z,18.9
2023-03-23T16:11:27.011Z,19
2023-03-23T16:13:53.771Z,19
2023-03-23T16:16:20.462Z,18.9
2023-03-23T16:18:46.998Z,18.9
2023-03-23T16:21:13.677Z,18.9
2023-03-23T16:23:40.517Z,18.8
2023-03-23T16:26:07.098Z,18.8
2023-03-23T16:28:33.727Z,18.7
2023-03-23T16:31:00.503Z,18.7
2023-03-23T16:33:27.247Z,18.7
2023-03-23T16:35:53.807Z,18.6
2023-03-23T16:38:20.558Z,18.6
2023-03-23T16:40:45.707Z,18.6
2023-03-23T16:43:12.568Z,18.6
2023-03-23T16:45:39.259Z,18.5
2023-03-23T16:48:05.886Z,18.4
2023-03-23T16:50:32.439Z,18.4
2023-03-23T16:52:59.274Z,18.4
2023-03-23T16:55:25.935Z,18.3
2023-03-23T16:57:52.495Z,18.3
2023-03-23T17:00:19.245Z,18.2
2023-03-23T17:02:45.954Z,18.2
2023-03-23T17:05:12.529Z,18.1
2023-03-23T17:07:39.277Z,18.2
2023-03-23T17:10:05.946Z,18.2
2023-03-23T17:12:31.171Z,18.1
2023-03-23T17:17:24.601Z,18.1
2023-03-23T17:19:51.262Z,18
2023-03-23T17:22:17.919Z,18
2023-03-23T17:24:44.743Z,18
2023-03-23T17:27:11.396Z,18
2023-03-23T17:29:37.948Z,18
2023-03-23T17:32:04.790Z,17.9
2023-03-23T17:34:31.399Z,17.9
2023-03-23T17:36:58.011Z,17.8
2023-03-23T17:39:24.820Z,17.8
2023-03-23T17:41:51.499Z,17.8
2023-03-23T17:44:16.604Z,17.7
2023-03-23T17:46:43.372Z,17.7
2023-03-23T17:49:09.997Z,17.6
2023-03-23T17:51:36.616Z,17.6
2023-03-23T17:54:03.464Z,17.6
2023-03-23T17:56:30.102Z,17.5
2023-03-23T17:58:56.656Z,17.4
2023-03-23T18:01:23.369Z,17.3
2023-03-23T18:03:50.111Z,17.3
2023-03-23T18:06:16.834Z,17.2
2023-03-23T18:08:43.420Z,17.2
2023-03-23T18:11:10.114Z,17.1
2023-03-23T18:13:36.948Z,17.1
2023-03-23T18:16:02.134Z,17
2023-03-23T18:18:28.853Z,17
2023-03-23T18:20:55.382Z,17.1
2023-03-23T18:23:22.219Z,17.2
2023-03-23T18:25:48.769Z,17.3
2023-03-23T18:28:15.617Z,17.3
2023-03-23T18:30:42.315Z,17.3
2023-03-23T18:33:08.915Z,17.3
2023-03-23T18:35:35.479Z,17.3
2023-03-23T18:38:02.343Z,17.2
2023-03-23T18:40:28.835Z,17.2
2023-03-23T18:42:55.706Z,17.2
2023-03-23T18:45:22.420Z,17.1
2023-03-23T18:47:47.605Z,17
2023-03-23T18:50:14.264Z,17
2023-03-23T18:52:40.975Z,16.9
2023-03-23T18:57:34.385Z,16.8
2023-03-23T19:00:00.936Z,16.7
2023-03-23T19:02:27.746Z,16.7
2023-03-23T19:04:54.382Z,16.7
2023-03-23T19:07:20.928Z,16.7
2023-03-23T19:09:47.799Z,16.6
2023-03-23T19:12:14.508Z,16.5
2023-03-23T19:14:41.220Z,16.5
2023-03-23T19:17:07.857Z,16.5
2023-03-23T19:19:33.046Z,16.5
2023-03-23T19:21:59.722Z,16.5
2023-03-23T19:24:26.434Z,16.6
2023-03-23T19:26:53.127Z,16.6
2023-03-23T19:29:19.813Z,16.6
2023-03-23T19:31:46.513Z,16.7
2023-03-23T19:34:13.165Z,16.8
2023-03-23T19:36:39.887Z,16.8
2023-03-23T19:39:06.566Z,17.1
2023-03-23T19:41:33.056Z,17.2
2023-03-23T19:43:59.839Z,17.2
2023-03-23T19:46:26.429Z,17.2
2023-03-23T19:48:53.291Z,17.3
2023-03-23T19:51:18.499Z,17.3
2023-03-23T19:53:45.208Z,17.3
2023-03-23T19:56:11.848Z,17.3
2023-03-23T19:58:38.561Z,17.3
2023-03-23T20:01:05.078Z,17.3
2023-03-23T20:03:31.967Z,17.3
2023-03-23T20:05:58.586Z,17.3
2023-03-23T20:08:25.334Z,17.3
2023-03-23T20:10:51.972Z,17.3
2023-03-23T20:13:18.667Z,17.2
2023-03-23T20:15:45.278Z,17.2
2023-03-23T20:18:12.054Z,17.2
2023-03-23T20:20:38.759Z,17.4
2023-03-23T20:23:03.972Z,17.4
2023-03-23T20:25:30.454Z,17.4
2023-03-23T20:27:57.204Z,17.3
2023-03-23T20:30:23.944Z,17.3
2023-03-23T20:32:50.591Z,17.2
2023-03-23T20:35:17.426Z,17.1
2023-03-23T20:37:44.067Z,17.1
2023-03-23T20:40:10.722Z,17
2023-03-23T20:42:37.503Z,17
2023-03-23T20:45:02.689Z,16.9
2023-03-23T20:47:29.319Z,16.9
2023-03-23T20:49:55.859Z,16.9
2023-03-23T20:52:22.741Z,16.8
2023-03-23T20:54:49.237Z,16.8
2023-03-23T20:57:16.092Z,16.8
2023-03-23T20:59:42.766Z,16.7
2023-03-23T21:02:09.471Z,16.6
2023-03-23T21:04:36.115Z,16.6
2023-03-23T21:07:02.802Z,16.5
2023-03-23T21:09:29.533Z,16.5
2023-03-23T21:11:56.181Z,16.3
2023-03-23T21:14:22.693Z,16.2
2023-03-23T21:16:48.095Z,16.1
2023-03-23T21:19:14.794Z,16.1
2023-03-23T21:21:41.395Z,16
2023-03-23T21:24:08.083Z,16
2023-03-23T21:26:34.665Z,15.9
2023-03-23T21:29:01.334Z,15.9
2023-03-23T21:31:28.186Z,15.8
2023-03-23T21:33:54.845Z,15.7
2023-03-23T21:36:21.531Z,15.7
2023-03-23T21:38:48.206Z,15.6
2023-03-23T21:41:14.767Z,15.4
2023-03-23T21:43:41.620Z,15.2
2023-03-23T21:46:08.178Z,15.2
2023-03-23T21:48:33.538Z,15.1
2023-03-23T21:51:00.162Z,15.1
2023-03-23T21:53:26.811Z,15
2023-03-23T21:55:53.483Z,14.9
2023-03-23T21:58:20.264Z,14.8
2023-03-23T22:00:46.764Z,14.6
2023-03-23T22:05:40.276Z,14.5
2023-03-23T22:08:06.845Z,14.4
2023-03-23T22:10:33.600Z,14.4
2023-03-23T22:13:00.252Z,14.3
2023-03-23T22:15:26.866Z,14.3
2023-03-23T22:17:53.707Z,14.3
2023-03-23T22:22:45.517Z,14.2
2023-03-23T22:27:38.932Z,14.1
2023-03-23T22:30:04.103Z,13.9
2023-03-23T22:32:30.962Z,13.8
2023-03-23T22:34:56.080Z,13.6
2023-03-23T22:37:22.857Z,13.5
2023-03-23T22:39:49.428Z,13.5
2023-03-23T22:42:16.064Z,13.5
2023-03-23T22:44:42.744Z,13.5
2023-03-23T22:47:09.601Z,13.5
2023-03-23T22:49:36.217Z,13.4
2023-03-23T22:52:02.931Z,13.4
2023-03-23T22:54:29.552Z,13.3
2023-03-23T22:56:54.891Z,13.4
2023-03-23T22:59:21.144Z,13.3
2023-03-23T23:01:47.761Z,13.3
2023-03-23T23:04:14.403Z,13.3
2023-03-23T23:06:41.184Z,13.3
2023-03-23T23:09:07.763Z,13.3
2023-03-23T23:11:34.522Z,13.3
2023-03-23T23:14:01.132Z,13.5
2023-03-23T23:16:27.816Z,13.6
2023-03-23T23:18:54.572Z,13.6
2023-03-23T23:21:21.356Z,13.7
2023-03-23T23:26:14.748Z,13.7
2023-03-23T23:28:41.342Z,13.7
2023-03-23T23:31:06.589Z,13.7
2023-03-23T23:33:33.160Z,13.7
2023-03-23T23:35:59.845Z,13.7
2023-03-23T23:38:26.708Z,13.8
2023-03-23T23:40:53.349Z,13.7
2023-03-23T23:43:20.092Z,13.8
2023-03-23T23:45:46.597Z,13.7
2023-03-23T23:48:13.372Z,13.7
2023-03-23T23:50:39.958Z,13.6
2023-03-23T23:53:06.867Z,13.7
2023-03-23T23:55:33.427Z,13.6
2023-03-23T23:58:00.199Z,13.6
